Time;durP1;ratioP1;P1;durP2;ratioP2;P2;SDS_P1;SDS_P2;PMS_P1;PMS_P2;Temp;Humidity;BMP_temperature;BMP_pressure;BME280_temperature;BME280_humidity;BME280_pressure;Samples;Min_cycle;Max_cycle;Signal;HPM_P1;HPM_P2
2024/03/01 00:00:51;;;;;;;6.80;4.60;;;;;;;14.20;50.51;102348.55;110654;1253;22286;-56
2024/03/01 00:03:19;;;;;;;6.90;4.40;;;;;;;14.19;50.54;102351.70;110606;1260;22160;-56
2024/03/01 00:05:46;;;;;;;14.90;4.70;;;;;;;14.20;50.59;102351.34;110439;1257;22408;-55
2024/03/01 00:08:14;;;;;;;9.70;4.00;;;;;;;14.20;50.64;102356.04;110586;1257;22319;-56
2024/03/01 00:10:41;;;;;;;5.50;4.00;;;;;;;14.21;50.57;102348.88;110668;1256;22961;-56
2024/03/01 00:13:09;;;;;;;6.90;5.00;;;;;;;14.22;50.58;102347.98;110425;1254;23133;-56
2024/03/01 00:15:37;;;;;;;6.90;4.10;;;;;;;14.23;50.71;102346.94;110629;1251;22878;-56
2024/03/01 00:18:05;;;;;;;7.50;4.00;;;;;;;14.22;50.69;102341.53;110595;1270;22857;-56
2024/03/01 00:20:32;;;;;;;4.70;4.00;;;;;;;14.21;50.70;102332.81;110556;1256;22356;-57
2024/03/01 00:23:00;;;;;;;7.70;4.80;;;;;;;14.18;50.76;102321.67;110427;1258;22424;-56
2024/03/01 00:25:28;;;;;;;5.70;4.00;;;;;;;14.18;50.69;102318.02;110699;1251;22095;-56
2024/03/01 00:27:56;;;;;;;6.00;4.60;;;;;;;14.17;50.82;102315.95;110613;1256;22400;-55
2024/03/01 00:30:23;;;;;;;7.70;4.50;;;;;;;14.15;50.84;102319.45;110400;1257;22426;-56
2024/03/01 00:32:51;;;;;;;6.50;4.10;;;;;;;14.15;50.86;102322.42;110707;1253;22386;-56
2024/03/01 00:35:18;;;;;;;8.30;4.40;;;;;;;14.16;50.90;102321.00;109886;1253;1002797;-56
2024/03/01 00:37:46;;;;;;;7.20;4.40;;;;;;;14.17;50.87;102319.95;110289;1259;22987;-56
2024/03/01 00:40:14;;;;;;;5.40;4.50;;;;;;;14.19;50.96;102310.33;109836;1269;1002562;-56
2024/03/01 00:42:41;;;;;;;5.90;4.30;;;;;;;14.19;50.92;102300.38;110689;1254;22447;-56
2024/03/01 00:45:09;;;;;;;5.70;4.40;;;;;;;14.20;50.96;102305.43;110670;1255;23099;-57
2024/03/01 00:47:46;;;;;;;7.00;4.10;;;;;;;14.20;50.99;102308.74;110581;1256;22133;-56
2024/03/01 00:50:15;;;;;;;8.10;4.20;;;;;;;14.21;50.92;102310.48;110603;1255;22817;-56
2024/03/01 00:52:42;;;;;;;6.40;4.30;;;;;;;14.21;50.92;102306.46;110358;1274;22130;-56
2024/03/01 00:55:10;;;;;;;7.60;4.50;;;;;;;14.22;50.93;102302.95;110601;1256;22406;-56
2024/03/01 00:57:38;;;;;;;5.80;4.20;;;;;;;14.23;50.90;102304.00;110720;1256;22375;-56
2024/03/01 01:00:06;;;;;;;8.40;4.30;;;;;;;14.24;50.88;102305.02;110668;1254;22302;-56
2024/03/01 01:02:33;;;;;;;5.80;4.00;;;;;;;14.22;50.79;102312.38;109582;1257;1003047;-56
2024/03/01 01:05:09;;;;;;;7.80;3.90;;;;;;;14.19;50.62;102310.31;109939;1254;1002819;-56
2024/03/01 01:07:36;;;;;;;4.90;3.70;;;;;;;14.17;50.31;102308.77;110651;1253;22158;-56
2024/03/01 01:10:05;;;;;;;8.30;4.40;;;;;;;14.13;50.28;102307.60;110433;1256;23063;-56
2024/03/01 01:12:32;;;;;;;5.60;4.40;;;;;;;14.14;50.34;102305.14;110695;1254;22927;-56
2024/03/01 01:15:00;;;;;;;5.70;4.10;;;;;;;14.15;50.41;102300.59;110333;1259;22127;-56
2024/03/01 01:17:28;;;;;;;5.90;4.50;;;;;;;14.18;50.48;102302.48;110660;1267;22342;-56
2024/03/01 01:19:55;;;;;;;6.70;4.90;;;;;;;14.18;50.42;102295.67;110609;1256;22128;-56
2024/03/01 01:22:24;;;;;;;4.90;4.20;;;;;;;14.16;50.44;102289.76;109881;1251;1002954;-56
2024/03/01 01:24:52;;;;;;;6.20;4.40;;;;;;;14.15;50.29;102288.03;110592;1256;22293;-56
2024/03/01 01:27:19;;;;;;;6.00;4.80;;;;;;;14.14;50.27;102288.05;110404;1259;22210;-56
2024/03/01 01:29:47;;;;;;;6.30;4.30;;;;;;;14.13;50.29;102286.30;110686;1256;22142;-56
2024/03/01 01:32:15;;;;;;;7.40;4.80;;;;;;;14.14;50.18;102272.52;110619;1258;22960;-56
2024/03/01 01:34:42;;;;;;;6.60;4.70;;;;;;;14.13;50.18;102271.48;110604;1266;22861;-56
2024/03/01 01:37:10;;;;;;;5.60;4.60;;;;;;;14.11;50.04;102279.88;110596;1256;22317;-56
2024/03/01 01:39:37;;;;;;;5.80;4.50;;;;;;;14.08;50.09;102277.65;110616;1256;22389;-56
2024/03/01 01:42:05;;;;;;;6.90;4.70;;;;;;;14.06;50.16;102276.79;110626;1253;22270;-55
2024/03/01 01:44:33;;;;;;;5.90;4.20;;;;;;;14.05;50.21;102283.27;110590;1268;23041;-56
2024/03/01 01:47:00;;;;;;;6.70;4.90;;;;;;;14.05;50.27;102286.06;110609;1253;22813;-56
2024/03/01 01:49:28;;;;;;;5.30;4.40;;;;;;;14.07;50.27;102279.58;110432;1259;22857;-56
2024/03/01 01:51:56;;;;;;;7.60;4.70;;;;;;;14.04;50.33;102277.53;109865;1267;1002461;-56
2024/03/01 01:54:24;;;;;;;6.70;4.40;;;;;;;14.04;50.37;102279.80;110673;1251;22976;-56
2024/03/01 01:56:51;;;;;;;8.40;4.50;;;;;;;14.03;50.32;102278.41;110609;1255;22928;-56
2024/03/01 01:59:19;;;;;;;4.00;3.50;;;;;;;14.02;50.32;102275.98;110607;1251;22162;-56
2024/03/01 02:01:46;;;;;;;4.60;3.70;;;;;;;14.01;50.21;102275.30;110588;1257;22294;-56
2024/03/01 02:04:14;;;;;;;6.30;3.90;;;;;;;13.97;50.25;102282.16;110479;1253;22401;-56
2024/03/01 02:06:44;;;;;;;5.30;4.00;;;;;;;13.95;50.26;102276.58;110608;1257;22320;-56
2024/03/01 02:09:12;;;;;;;7.30;3.80;;;;;;;13.95;50.37;102267.34;110584;1253;22143;-56
2024/03/01 02:11:40;;;;;;;6.20;3.40;;;;;;;13.92;50.47;102275.39;110595;1256;22117;-55
2024/03/01 02:14:09;;;;;;;7.70;3.70;;;;;;;13.91;50.39;102282.90;110607;1253;22276;-56
2024/03/01 02:16:37;;;;;;;6.50;3.70;;;;;;;13.91;50.52;102279.59;110618;1253;22120;-56
2024/03/01 02:19:13;;;;;;;4.20;3.70;;;;;;;13.90;50.61;102275.06;110617;1256;22354;-56
2024/03/01 02:22:08;;;;;;;7.70;4.10;;;;;;;13.90;50.68;102278.91;110586;1253;22125;-56
2024/03/01 02:24:35;;;;;;;5.90;4.30;;;;;;;13.85;50.79;102281.92;109242;1264;1002467;-56
2024/03/01 02:27:03;;;;;;;4.30;3.90;;;;;;;13.87;50.79;102266.55;109279;1260;1002180;-56
2024/03/01 02:29:31;;;;;;;5.40;4.40;;;;;;;13.87;50.78;102257.15;110053;1261;22389;-56
2024/03/01 02:32:00;;;;;;;7.20;4.40;;;;;;;13.89;50.70;102260.59;109262;1262;1002255;-56
2024/03/01 02:34:27;;;;;;;6.40;4.40;;;;;;;13.90;50.71;102255.70;110018;1264;22169;-56
2024/03/01 02:36:55;;;;;;;6.00;4.30;;;;;;;13.93;50.79;102247.46;109943;1265;22360;-56
2024/03/01 02:39:25;;;;;;;5.60;4.40;;;;;;;13.94;50.71;102243.09;110051;1263;23024;-56
2024/03/01 02:41:53;;;;;;;7.10;4.90;;;;;;;13.95;50.73;102241.52;109861;1265;22163;-56
2024/03/01 02:44:21;;;;;;;7.30;4.50;;;;;;;13.95;50.85;102247.27;110054;1262;22880;-56
2024/03/01 02:46:48;;;;;;;7.40;4.60;;;;;;;13.96;50.86;102251.96;109264;1259;1002379;-56
2024/03/01 02:49:16;;;;;;;8.80;5.10;;;;;;;13.96;50.89;102262.44;109066;1266;1002104;-56
2024/03/01 02:51:44;;;;;;;8.90;5.50;;;;;;;13.96;50.92;102265.93;109841;1267;22990;-56
2024/03/01 02:54:11;;;;;;;8.20;5.60;;;;;;;13.96;51.07;102259.65;109089;1265;1002668;-56
2024/03/01 02:56:39;;;;;;;8.50;4.60;;;;;;;13.96;51.09;102243.60;109090;1264;1003114;-56
2024/03/01 02:59:06;;;;;;;6.10;5.50;;;;;;;13.93;51.03;102237.01;109844;1266;22267;-56
2024/03/01 03:01:34;;;;;;;7.50;5.40;;;;;;;13.91;51.24;102233.70;110078;1266;22314;-56
2024/03/01 03:04:03;;;;;;;6.20;5.50;;;;;;;13.92;51.19;102234.92;110272;1258;22186;-57
2024/03/01 03:06:31;;;;;;;6.80;5.60;;;;;;;13.92;50.99;102238.77;110212;1256;22301;-56
2024/03/01 03:08:58;;;;;;;9.90;6.10;;;;;;;13.89;51.12;102230.77;110236;1259;22166;-56
2024/03/01 03:11:26;;;;;;;7.60;5.40;;;;;;;13.87;51.37;102220.48;110305;1256;22133;-56
2024/03/01 03:13:54;;;;;;;8.00;5.90;;;;;;;13.87;51.46;102217.54;109476;1272;1003062;-56
2024/03/01 03:16:21;;;;;;;7.90;5.90;;;;;;;13.87;51.44;102225.38;109521;1259;1002323;-56
2024/03/01 03:18:49;;;;;;;10.60;6.80;;;;;;;13.87;51.55;102227.48;110156;1270;22418;-57
2024/03/01 03:21:17;;;;;;;9.30;6.80;;;;;;;13.88;51.60;102226.60;110331;1273;22291;-56
2024/03/01 03:23:45;;;;;;;10.90;6.90;;;;;;;13.88;51.74;102233.58;110637;1253;22383;-56
2024/03/01 03:26:12;;;;;;;12.20;6.90;;;;;;;13.88;51.75;102241.42;109903;1255;1002889;-56
2024/03/01 03:28:40;;;;;;;9.40;7.50;;;;;;;13.87;51.77;102239.69;109944;1260;1002867;-56
2024/03/01 03:31:07;;;;;;;9.30;6.90;;;;;;;13.87;51.77;102238.82;109863;1253;1002525;-57
2024/03/01 03:33:35;;;;;;;8.60;7.70;;;;;;;13.87;51.89;102232.19;110549;1257;22347;-56
2024/03/01 03:36:04;;;;;;;9.00;7.20;;;;;;;13.89;51.88;102229.39;110579;1253;22285;-56
2024/03/01 03:38:32;;;;;;;9.00;8.00;;;;;;;13.90;51.89;102235.30;110591;1256;22111;-56
2024/03/01 03:40:59;;;;;;;11.50;7.30;;;;;;;13.90;52.02;102245.05;110591;1255;22109;-56
2024/03/01 03:43:27;;;;;;;12.50;7.90;;;;;;;13.92;52.01;102243.65;110655;1257;22116;-56
2024/03/01 03:45:54;;;;;;;11.40;7.90;;;;;;;13.88;52.09;102242.30;110160;1262;22296;-56
2024/03/01 03:48:22;;;;;;;10.00;7.30;;;;;;;13.83;52.14;102256.48;110639;1252;22903;-57
2024/03/01 03:50:50;;;;;;;10.60;8.10;;;;;;;13.83;52.15;102259.45;110580;1253;22404;-56
2024/03/01 03:53:18;;;;;;;7.70;6.70;;;;;;;13.88;52.10;102253.28;110579;1253;22902;-57
2024/03/01 03:55:45;;;;;;;8.40;6.40;;;;;;;13.88;52.08;102254.86;110660;1253;22149;-56
2024/03/01 03:58:13;;;;;;;10.90;6.90;;;;;;;13.85;52.13;102259.42;110577;1253;22375;-56
2024/03/01 04:00:40;;;;;;;10.60;6.70;;;;;;;13.84;52.15;102258.73;110612;1253;22120;-56
2024/03/01 04:03:08;;;;;;;11.50;6.00;;;;;;;13.83;52.05;102252.64;110352;1259;22680;-56
2024/03/01 04:05:36;;;;;;;9.50;7.40;;;;;;;13.84;52.14;102246.71;110551;1256;23032;-56
2024/03/01 04:08:04;;;;;;;9.20;6.50;;;;;;;13.85;52.17;102251.92;110400;1256;22372;-56
2024/03/01 04:10:33;;;;;;;11.00;7.70;;;;;;;13.86;52.17;102252.61;110668;1254;22243;-56
2024/03/01 04:13:01;;;;;;;9.40;6.60;;;;;;;13.88;52.08;102261.14;110642;1253;22312;-56
2024/03/01 04:15:29;;;;;;;8.10;6.60;;;;;;;13.90;52.05;102271.75;110565;1257;22326;-56
2024/03/01 04:17:57;;;;;;;10.00;6.30;;;;;;;13.91;52.08;102254.12;110598;1253;22363;-56
2024/03/01 04:20:25;;;;;;;9.30;6.50;;;;;;;13.87;52.19;102242.48;110700;1255;22426;-56
2024/03/01 04:22:53;;;;;;;12.30;6.40;;;;;;;13.84;52.27;102243.39;110626;1253;23041;-56
2024/03/01 04:25:22;;;;;;;9.10;7.20;;;;;;;13.81;52.37;102237.66;110614;1256;22294;-56
2024/03/01 04:27:50;;;;;;;8.80;6.30;;;;;;;13.82;52.37;102234.50;110597;1268;22365;-56
2024/03/01 04:30:18;;;;;;;10.00;7.00;;;;;;;13.77;52.47;102248.88;110753;1256;22880;-57
2024/03/01 04:32:45;;;;;;;11.20;7.00;;;;;;;13.75;52.59;102249.27;110616;1254;22437;-56
2024/03/01 04:35:13;;;;;;;8.60;6.30;;;;;;;13.70;52.66;102236.39;110604;1254;22301;-56
2024/03/01 04:37:43;;;;;;;10.00;6.50;;;;;;;13.66;52.68;102236.61;110273;1262;22279;-57
2024/03/01 04:40:11;;;;;;;11.50;6.50;;;;;;;13.66;52.77;102245.17;110610;1253;22257;-56
2024/03/01 04:42:41;;;;;;;13.10;7.50;;;;;;;13.66;52.87;102245.35;109847;1256;1003022;-57
2024/03/01 04:45:09;;;;;;;13.60;6.80;;;;;;;13.67;52.96;102246.38;110658;1256;22124;-56
2024/03/01 04:47:37;;;;;;;10.00;7.20;;;;;;;13.67;52.81;102239.74;110552;1274;22110;-56
2024/03/01 04:50:06;;;;;;;9.30;6.30;;;;;;;13.68;52.70;102249.85;110725;1255;22114;-56
2024/03/01 04:52:34;;;;;;;15.10;6.60;;;;;;;13.65;52.72;102254.06;110650;1253;22871;-56
2024/03/01 04:55:01;;;;;;;10.30;6.70;;;;;;;13.70;52.58;102260.48;110648;1256;22101;-56
2024/03/01 04:57:29;;;;;;;8.70;6.30;;;;;;;13.68;52.67;102268.17;110473;1256;22350;-56
2024/03/01 04:59:57;;;;;;;10.50;6.40;;;;;;;13.66;52.65;102272.02;109883;1257;1002939;-57
2024/03/01 05:02:24;;;;;;;7.90;6.40;;;;;;;13.66;52.73;102276.73;109893;1251;1002602;-56
2024/03/01 05:04:52;;;;;;;11.70;6.30;;;;;;;13.69;52.67;102274.27;110617;1257;22357;-56
2024/03/01 05:07:20;;;;;;;9.50;6.60;;;;;;;13.68;52.65;102266.77;109683;1259;1002977;-56
2024/03/01 05:09:47;;;;;;;8.50;6.20;;;;;;;13.67;52.65;102257.19;110654;1253;22347;-56
2024/03/01 05:12:15;;;;;;;11.00;6.40;;;;;;;13.66;52.70;102264.00;110612;1256;22911;-56
2024/03/01 05:14:42;;;;;;;9.10;6.20;;;;;;;13.64;52.71;102275.54;110585;1256;22791;-56
2024/03/01 05:17:11;;;;;;;10.70;6.50;;;;;;;13.62;52.77;102283.23;110612;1257;22157;-56
2024/03/01 05:19:39;;;;;;;9.30;7.00;;;;;;;13.60;52.85;102288.48;110630;1255;22093;-56
2024/03/01 05:22:08;;;;;;;13.70;6.90;;;;;;;13.62;52.87;102290.72;110587;1253;22105;-57
2024/03/01 05:24:36;;;;;;;9.30;7.00;;;;;;;13.66;52.92;102294.70;110494;1257;23158;-56
2024/03/01 05:27:04;;;;;;;8.90;6.70;;;;;;;13.73;52.62;102283.98;110606;1251;22346;-56
2024/03/01 05:29:31;;;;;;;12.60;7.10;;;;;;;13.77;52.45;102277.48;110351;1256;22225;-57
2024/03/01 05:31:59;;;;;;;9.10;6.90;;;;;;;13.73;52.45;102278.74;110537;1268;23002;-57
2024/03/01 05:34:27;;;;;;;11.30;6.90;;;;;;;13.68;52.52;102282.64;110643;1253;22288;-56
2024/03/01 05:36:54;;;;;;;11.20;6.80;;;;;;;13.66;52.53;102278.48;110746;1253;22154;-56
2024/03/01 05:39:22;;;;;;;10.50;6.50;;;;;;;13.62;52.60;102275.20;110377;1259;23104;-56
2024/03/01 05:41:50;;;;;;;10.30;6.40;;;;;;;13.59;52.79;102280.11;110442;1257;22319;-56
2024/03/01 05:44:17;;;;;;;14.40;6.90;;;;;;;13.58;52.89;102284.13;110610;1256;22346;-56
2024/03/01 05:46:45;;;;;;;10.40;7.50;;;;;;;13.58;52.99;102289.90;110639;1253;22924;-56
2024/03/01 05:49:12;;;;;;;10.40;6.90;;;;;;;13.59;53.10;102296.69;110637;1256;22126;-56
2024/03/01 05:51:40;;;;;;;9.10;6.70;;;;;;;13.63;53.16;102293.33;110599;1253;22340;-56
2024/03/01 05:54:08;;;;;;;11.00;6.50;;;;;;;13.69;53.02;102300.06;110593;1253;22816;-57
2024/03/01 05:56:35;;;;;;;10.30;6.00;;;;;;;13.71;52.91;102305.11;110628;1256;22130;-56
2024/03/01 05:59:03;;;;;;;10.50;6.50;;;;;;;13.73;53.01;102308.92;110620;1256;22391;-56
2024/03/01 06:01:32;;;;;;;9.60;6.00;;;;;;;13.76;53.02;102306.98;110612;1254;22283;-56
2024/03/01 06:03:59;;;;;;;10.30;7.00;;;;;;;13.80;52.96;102308.30;110593;1267;22358;-56
2024/03/01 06:06:27;;;;;;;10.80;6.60;;;;;;;13.83;52.83;102307.07;110627;1266;22100;-56
2024/03/01 06:08:55;;;;;;;10.10;6.60;;;;;;;13.81;52.78;102306.20;110595;1252;23089;-56
2024/03/01 06:11:22;;;;;;;12.00;7.30;;;;;;;13.80;52.81;102301.17;110650;1257;22781;-57
2024/03/01 06:13:50;;;;;;;8.30;6.60;;;;;;;13.81;52.84;102294.88;110568;1253;22125;-56
2024/03/01 06:16:18;;;;;;;9.90;6.00;;;;;;;13.82;52.79;102290.52;110622;1253;22362;-56
2024/03/01 06:18:45;;;;;;;12.00;6.50;;;;;;;13.83;52.77;102296.08;110614;1256;22299;-56
2024/03/01 06:21:22;;;;;;;8.60;6.20;;;;;;;13.83;52.77;102296.95;110620;1256;22417;-56
2024/03/01 06:23:50;;;;;;;11.30;7.30;;;;;;;13.85;52.76;102298.52;109939;1251;1002752;-56
2024/03/01 06:26:17;;;;;;;10.60;7.30;;;;;;;13.88;52.76;102297.25;110624;1254;22293;-56
2024/03/01 06:28:45;;;;;;;10.50;6.80;;;;;;;13.90;52.79;102293.73;109547;1259;1002123;-56
2024/03/01 06:31:12;;;;;;;9.20;6.70;;;;;;;13.90;52.76;102291.46;109943;1253;1002840;-56
2024/03/01 06:33:41;;;;;;;10.60;6.90;;;;;;;13.81;53.02;102282.32;110712;1254;22433;-56
2024/03/01 06:36:08;;;;;;;9.10;6.90;;;;;;;13.81;52.96;102277.96;110575;1256;23197;-56
2024/03/01 06:38:36;;;;;;;12.60;7.20;;;;;;;13.82;52.94;102274.64;110620;1256;22137;-56
2024/03/01 06:41:05;;;;;;;10.50;7.00;;;;;;;13.84;52.82;102280.20;110361;1257;22269;-56
2024/03/01 06:43:32;;;;;;;10.00;7.70;;;;;;;13.85;52.80;102283.31;110609;1254;22111;-56
2024/03/01 06:46:03;;;;;;;14.40;7.10;;;;;;;13.85;52.73;102286.64;110620;1258;22288;-56
2024/03/01 06:48:31;;;;;;;12.40;7.00;;;;;;;13.84;52.75;102296.23;110601;1254;22288;-56
2024/03/01 06:50:58;;;;;;;9.50;7.00;;;;;;;13.84;52.80;102305.66;110291;1260;22792;-57
2024/03/01 06:53:26;;;;;;;11.60;7.00;;;;;;;13.87;52.79;102309.13;110617;1253;22992;-55
2024/03/01 06:55:57;;;;;;;10.30;7.80;;;;;;;13.93;52.73;102310.10;110655;1254;22895;-56
2024/03/01 06:58:24;;;;;;;10.40;6.60;;;;;;;13.99;52.53;102310.06;110637;1251;22378;-56
2024/03/01 07:00:52;;;;;;;14.00;6.90;;;;;;;14.03;52.45;102309.83;110345;1274;22121;-56
2024/03/01 07:03:20;;;;;;;9.50;7.00;;;;;;;14.06;52.35;102302.98;110601;1271;23065;-56
2024/03/01 07:05:48;;;;;;;11.00;7.00;;;;;;;14.15;52.04;102296.94;110377;1273;22110;-56
2024/03/01 07:08:15;;;;;;;12.10;7.20;;;;;;;14.23;51.70;102295.61;110463;1266;22835;-56
2024/03/01 07:10:43;;;;;;;11.00;7.20;;;;;;;14.25;51.50;102296.11;110587;1253;22243;-56
2024/03/01 07:13:11;;;;;;;15.30;7.20;;;;;;;14.26;51.54;102298.20;109842;1257;1002404;-56
2024/03/01 07:15:38;;;;;;;12.00;7.20;;;;;;;14.27;51.41;102299.75;110574;1273;22352;-56
2024/03/01 07:18:06;;;;;;;9.40;6.90;;;;;;;14.28;51.38;102298.71;110582;1256;22144;-56
2024/03/01 07:20:34;;;;;;;10.80;6.60;;;;;;;14.29;51.32;102296.44;110606;1266;22121;-56
2024/03/01 07:23:02;;;;;;;12.10;7.80;;;;;;;14.32;51.34;102293.61;110605;1257;22735;-56
2024/03/01 07:25:30;;;;;;;13.00;7.10;;;;;;;14.35;51.33;102298.27;110760;1253;22411;-56
2024/03/01 07:27:57;;;;;;;15.20;7.60;;;;;;;14.39;51.34;102294.92;110565;1274;22396;-56
2024/03/01 07:30:25;;;;;;;8.90;7.40;;;;;;;14.44;51.33;102291.19;110627;1254;22354;-55
2024/03/01 07:32:53;;;;;;;11.10;7.50;;;;;;;14.47;51.22;102290.45;110573;1269;22267;-56
2024/03/01 07:35:21;;;;;;;9.40;7.60;;;;;;;14.50;51.00;102291.98;109736;1273;1003035;-55
2024/03/01 07:37:48;;;;;;;12.40;7.50;;;;;;;14.51;50.96;102289.88;109834;1269;1002949;-56
2024/03/01 07:40:16;;;;;;;9.80;7.30;;;;;;;14.51;51.09;102288.29;110667;1266;22244;-56
2024/03/01 07:42:44;;;;;;;13.80;8.20;;;;;;;14.55;51.05;102291.04;110616;1256;22412;-56
2024/03/01 07:45:11;;;;;;;12.40;8.40;;;;;;;14.60;50.78;102290.27;110408;1272;22274;-56
2024/03/01 07:47:43;;;;;;;11.70;7.10;;;;;;;14.64;50.46;102284.27;110658;1274;22126;-56
2024/03/01 07:50:11;;;;;;;10.10;7.70;;;;;;;14.65;50.31;102288.78;110296;1274;22145;-55
2024/03/01 07:52:39;;;;;;;13.70;7.80;;;;;;;14.67;50.33;102292.79;109806;1269;1002932;-55
2024/03/01 07:55:06;;;;;;;11.90;7.90;;;;;;;14.67;50.21;102292.42;110507;1273;22429;-56
2024/03/01 07:57:34;;;;;;;14.00;8.40;;;;;;;14.68;50.03;102288.92;110610;1267;22396;-56
2024/03/01 08:00:03;;;;;;;10.10;7.80;;;;;;;14.68;50.08;102289.27;110612;1269;22320;-56
2024/03/01 08:02:30;;;;;;;10.80;8.90;;;;;;;14.68;50.04;102292.08;110633;1256;22276;-56
2024/03/01 08:04:58;;;;;;;11.90;8.40;;;;;;;14.68;50.00;102289.62;110580;1272;23044;-56
2024/03/01 08:07:26;;;;;;;14.50;9.10;;;;;;;14.67;49.97;102289.46;110585;1266;22805;-55
2024/03/01 08:09:54;;;;;;;14.00;9.00;;;;;;;14.66;49.85;102290.35;109766;1273;1002869;-55
2024/03/01 08:12:22;;;;;;;13.30;9.10;;;;;;;14.67;49.90;102287.02;110624;1273;22242;-57
2024/03/01 08:14:50;;;;;;;13.00;8.90;;;;;;;14.65;49.66;102286.52;110392;1266;22398;-55
2024/03/01 08:17:18;;;;;;;12.50;9.50;;;;;;;14.64;49.73;102291.26;110699;1271;22159;-55
2024/03/01 08:19:48;;;;;;;16.40;9.40;;;;;;;14.67;49.80;102287.55;109698;1267;1002174;-55
2024/03/01 08:22:16;;;;;;;14.20;8.70;;;;;;;14.71;49.85;102284.52;110600;1273;23102;-55
2024/03/01 08:24:48;;;;;;;15.10;10.40;;;;;;;14.75;49.68;102282.01;110690;1273;22290;-55
2024/03/01 08:27:25;;;;;;;13.90;8.80;;;;;;;14.80;49.33;102284.56;110577;1272;22469;-55
2024/03/01 08:29:53;;;;;;;15.90;10.10;;;;;;;14.82;49.28;102287.00;110644;1269;23090;-55
2024/03/01 08:32:28;;;;;;;15.20;9.30;;;;;;;14.85;49.31;102284.14;109785;1265;1002452;-55
2024/03/01 08:34:56;;;;;;;13.60;8.90;;;;;;;14.87;49.36;102285.16;110594;1269;22341;-55
2024/03/01 08:37:28;;;;;;;14.20;9.80;;;;;;;14.88;49.33;102288.11;110543;1273;22431;-55
2024/03/01 08:39:56;;;;;;;18.60;10.10;;;;;;;14.91;49.10;102285.98;110410;1274;22603;-55
2024/03/01 08:42:24;;;;;;;16.80;10.50;;;;;;;14.93;48.97;102283.31;109831;1266;1002628;-55
2024/03/01 08:44:59;;;;;;;13.90;9.40;;;;;;;14.93;49.01;102281.56;110652;1273;22241;-56
2024/03/01 08:47:31;;;;;;;15.80;10.30;;;;;;;14.92;48.93;102287.52;110314;1274;22303;-56
2024/03/01 08:50:23;;;;;;;15.20;10.00;;;;;;;14.91;49.07;102285.80;110461;1274;23197;-55
2024/03/01 08:52:50;;;;;;;12.80;10.40;;;;;;;14.93;49.09;102286.28;109282;1280;1002380;-54
2024/03/01 08:55:21;;;;;;;16.80;10.10;;;;;;;14.99;49.01;102287.76;109237;1273;1002882;-55
2024/03/01 08:57:49;;;;;;;16.60;10.40;;;;;;;15.05;48.95;102288.55;110076;1280;22471;-56
2024/03/01 09:00:35;;;;;;;14.40;10.60;;;;;;;15.07;48.59;102282.03;110087;1280;22377;-54
2024/03/01 09:03:03;;;;;;;16.00;11.40;;;;;;;15.06;48.41;102281.52;109250;1273;1002456;-56
2024/03/01 09:05:32;;;;;;;27.90;11.40;;;;;;;15.03;48.44;102276.50;110030;1275;23327;-55
2024/03/01 09:08:00;;;;;;;16.30;10.30;;;;;;;15.01;48.55;102276.19;110028;1280;23211;-55
2024/03/01 09:10:30;;;;;;;20.60;10.10;;;;;;;15.00;48.51;102276.56;109921;1280;22189;-55
2024/03/01 09:12:58;;;;;;;17.40;10.50;;;;;;;14.98;48.38;102279.91;110067;1273;22386;-55
2024/03/01 09:15:28;;;;;;;16.90;9.40;;;;;;;14.93;48.31;102278.95;110067;1280;22151;-56
2024/03/01 09:17:56;;;;;;;17.30;9.90;;;;;;;14.88;48.12;102274.67;109984;1280;22187;-55
2024/03/01 09:20:33;;;;;;;16.40;10.20;;;;;;;14.82;48.17;102271.77;110072;1274;23163;-55
2024/03/01 09:23:26;;;;;;;18.80;11.40;;;;;;;14.77;48.41;102270.27;110042;1275;22874;-54
2024/03/01 09:28:00;;;;;;;17.80;10.40;;;;;;;14.01;50.29;102273.29;104737;1294;557985;-55
2024/03/01 09:30:27;;;;;;;19.30;10.90;;;;;;;14.65;48.85;102263.11;105901;1285;25389;-55
2024/03/01 09:32:54;;;;;;;17.60;10.50;;;;;;;14.71;48.75;102259.20;106221;1280;25392;-55
2024/03/01 09:35:21;;;;;;;24.90;10.80;;;;;;;14.73;48.76;102262.32;106296;1282;25453;-55
2024/03/01 09:37:49;;;;;;;15.40;9.70;;;;;;;14.73;48.64;102264.58;106309;1280;25373;-55
2024/03/01 09:40:37;;;;;;;13.00;8.80;;;;;;;14.74;48.53;102267.71;106185;1280;221935;-55
2024/03/01 09:43:19;;;;;;;16.30;9.40;;;;;;;14.70;48.40;102266.71;107074;1266;25362;-54
2024/03/01 09:46:02;;;;;;;14.90;8.70;;;;;;;14.63;48.40;102257.55;106926;1269;22646;-54
2024/03/01 09:48:45;;;;;;;14.80;9.00;;;;;;;14.61;48.55;102261.09;107234;1267;26506;-55
2024/03/01 09:51:39;;;;;;;13.30;9.20;;;;;;;14.59;48.60;102268.27;107159;1266;25516;-55
2024/03/01 09:54:21;;;;;;;13.90;9.50;;;;;;;14.58;48.88;102261.14;106853;1273;25394;-54
2024/03/01 09:56:52;;;;;;;14.10;9.40;;;;;;;14.58;48.84;102258.51;107133;1267;25815;-55
2024/03/01 09:59:26;;;;;;;18.10;9.80;;;;;;;14.58;48.76;102264.79;107248;1266;25344;-55
2024/03/01 10:02:01;;;;;;;17.50;9.10;;;;;;;14.58;48.78;102263.57;107201;1266;25406;-54
2024/03/01 10:04:42;;;;;;;15.00;9.30;;;;;;;14.57;48.75;102256.94;107510;1266;22618;-55
2024/03/01 10:07:51;;;;;;;15.70;9.50;;;;;;;14.57;48.92;102252.05;107120;1269;25406;-55
2024/03/01 10:10:30;;;;;;;12.50;9.00;;;;;;;14.58;49.03;102253.44;106725;1266;25344;-55
2024/03/01 10:13:09;;;;;;;17.90;9.20;;;;;;;14.59;49.01;102258.48;106654;1273;24358;-54
2024/03/01 10:16:14;;;;;;;15.70;8.90;;;;;;;14.62;49.09;102254.44;106687;1273;22617;-54
2024/03/01 10:18:45;;;;;;;16.10;8.70;;;;;;;14.67;49.01;102246.85;105933;1287;25444;-54
2024/03/01 10:21:43;;;;;;;12.30;8.30;;;;;;;14.68;48.84;102245.79;106185;1277;25402;-54
2024/03/01 10:24:19;;;;;;;15.60;9.30;;;;;;;14.66;48.94;102249.83;106055;1280;25382;-54
2024/03/01 10:27:22;;;;;;;13.30;8.80;;;;;;;14.67;48.91;102245.45;105973;1280;23712;-54
2024/03/01 10:29:55;;;;;;;17.30;8.50;;;;;;;14.69;48.55;102249.77;106050;1284;25426;-55
2024/03/01 10:32:53;;;;;;;16.40;8.00;;;;;;;14.68;48.40;102251.89;105817;1286;25348;-54
2024/03/01 10:35:25;;;;;;;14.80;9.00;;;;;;;14.66;48.44;102245.81;105692;1285;25406;-54
2024/03/01 10:38:18;;;;;;;13.70;8.70;;;;;;;14.63;48.52;102240.97;105872;1285;22545;-54
2024/03/01 10:41:12;;;;;;;11.50;8.60;;;;;;;14.62;48.25;102242.89;105230;1292;25519;-55
2024/03/01 10:44:28;;;;;;;13.10;8.30;;;;;;;14.58;48.36;102235.62;104574;1298;25403;-55
2024/03/01 10:47:17;;;;;;;13.50;7.40;;;;;;;14.53;48.14;102226.29;104853;1295;25548;-55
2024/03/01 10:50:09;;;;;;;13.00;7.90;;;;;;;14.47;48.26;102226.19;104948;1280;25388;-55
2024/03/01 10:52:39;;;;;;;13.00;8.00;;;;;;;14.46;48.34;102229.36;105002;1295;25443;-55
2024/03/01 10:55:10;;;;;;;14.90;8.90;;;;;;;14.45;48.44;102222.20;105207;1295;22629;-55
2024/03/01 10:57:42;;;;;;;14.50;8.40;;;;;;;14.44;48.41;102220.83;105594;1292;22554;-55
2024/03/01 11:00:12;;;;;;;18.00;8.10;;;;;;;14.41;48.39;102213.19;105287;1292;25373;-55
2024/03/01 11:02:41;;;;;;;9.60;7.70;;;;;;;14.41;48.49;102213.02;105284;1293;22555;-56
2024/03/01 11:05:32;;;;;;;12.00;7.80;;;;;;;14.43;48.57;102207.04;105312;1292;25375;-56
2024/03/01 11:08:27;;;;;;;11.20;8.40;;;;;;;14.46;48.36;102207.52;105626;1286;25486;-55
2024/03/01 11:11:03;;;;;;;14.80;8.20;;;;;;;14.48;48.01;102202.61;105891;1290;25364;-55
2024/03/01 11:13:32;;;;;;;17.40;8.70;;;;;;;14.48;47.81;102202.27;105731;1268;23227;-55
2024/03/01 11:16:01;;;;;;;16.10;8.80;;;;;;;14.47;48.19;102194.23;105931;1292;25501;-55
2024/03/01 11:18:32;;;;;;;11.90;8.60;;;;;;;14.47;48.01;102187.60;105898;1279;22542;-55
2024/03/01 11:21:04;;;;;;;15.50;8.30;;;;;;;14.44;47.84;102181.70;106591;1273;25495;-55
2024/03/01 11:23:38;;;;;;;13.10;8.30;;;;;;;14.37;47.91;102185.49;106868;1273;22530;-55
2024/03/01 11:26:15;;;;;;;12.80;7.90;;;;;;;14.42;47.59;102182.45;107213;1266;25350;-55